sensor_id;sensor_type;location;lat;lon;timestamp;temperature;humidity
15044;DHT22;7619;48.562;8.910;2022-07-10T00:00:46;18.10;1.00
15044;DHT22;7619;48.562;8.910;2022-07-10T00:03:14;18.00;1.00
15044;DHT22;7619;48.562;8.910;2022-07-10T00:05:43;18.00;1.00
15044;DHT22;7619;48.562;8.910;2022-07-10T00:08:12;17.90;1.00
15044;DHT22;7619;48.562;8.910;2022-07-10T00:10:41;17.80;83.00
15044;DHT22;7619;48.562;8.910;2022-07-10T00:13:10;17.70;18.90
15044;DHT22;7619;48.562;8.910;2022-07-10T00:15:38;17.70;99.90
15044;DHT22;7619;48.562;8.910;2022-07-10T00:18:07;17.70;99.90
15044;DHT22;7619;48.562;8.910;2022-07-10T00:20:36;17.60;99.90
15044;DHT22;7619;48.562;8.910;2022-07-10T00:23:05;17.60;1.00
15044;DHT22;7619;48.562;8.910;2022-07-10T00:28:02;17.50;1.00
15044;DHT22;7619;48.562;8.910;2022-07-10T00:30:31;17.40;1.00
15044;DHT22;7619;48.562;8.910;2022-07-10T00:33:00;17.30;99.90
15044;DHT22;7619;48.562;8.910;2022-07-10T00:35:29;17.20;1.00
15044;DHT22;7619;48.562;8.910;2022-07-10T00:40:26;17.30;1.00
15044;DHT22;7619;48.562;8.910;2022-07-10T00:42:55;17.30;1.00
15044;DHT22;7619;48.562;8.910;2022-07-10T00:45:23;17.40;99.90
15044;DHT22;7619;48.562;8.910;2022-07-10T00:47:52;17.40;99.90
15044;DHT22;7619;48.562;8.910;2022-07-10T00:50:21;17.40;99.90
15044;DHT22;7619;48.562;8.910;2022-07-10T00:52:50;17.30;99.90
15044;DHT22;7619;48.562;8.910;2022-07-10T00:57:48;17.30;99.90
15044;DHT22;7619;48.562;8.910;2022-07-10T01:00:16;17.30;99.90
15044;DHT22;7619;48.562;8.910;2022-07-10T01:02:46;17.30;1.00
15044;DHT22;7619;48.562;8.910;2022-07-10T01:05:15;17.30;1.00
15044;DHT22;7619;48.562;8.910;2022-07-10T01:07:44;17.30;1.00
15044;DHT22;7619;48.562;8.910;2022-07-10T01:10:13;17.30;1.00
15044;DHT22;7619;48.562;8.910;2022-07-10T01:12:42;17.30;99.90
15044;DHT22;7619;48.562;8.910;2022-07-10T01:15:11;17.30;99.90
15044;DHT22;7619;48.562;8.910;2022-07-10T01:17:40;17.30;1.00
15044;DHT22;7619;48.562;8.910;2022-07-10T01:22:38;17.20;99.90
15044;DHT22;7619;48.562;8.910;2022-07-10T01:25:08;17.20;1.00
15044;DHT22;7619;48.562;8.910;2022-07-10T01:27:38;17.10;1.00
15044;DHT22;7619;48.562;8.910;2022-07-10T01:30:10;17.10;99.90
15044;DHT22;7619;48.562;8.910;2022-07-10T01:32:39;17.00;99.90
15044;DHT22;7619;48.562;8.910;2022-07-10T01:37:38;17.00;92.90
15044;DHT22;7619;48.562;8.910;2022-07-10T01:42:36;16.90;99.90
15044;DHT22;7619;48.562;8.910;2022-07-10T01:47:35;16.90;1.00
15044;DHT22;7619;48.562;8.910;2022-07-10T01:50:05;16.80;99.90
15044;DHT22;7619;48.562;8.910;2022-07-10T01:52:35;16.70;1.00
15044;DHT22;7619;48.562;8.910;2022-07-10T01:55:05;16.60;1.00
15044;DHT22;7619;48.562;8.910;2022-07-10T01:57:34;16.70;86.80
15044;DHT22;7619;48.562;8.910;2022-07-10T02:02:31;16.70;1.00
15044;DHT22;7619;48.562;8.910;2022-07-10T02:05:00;16.70;1.00
15044;DHT22;7619;48.562;8.910;2022-07-10T02:12:24;16.70;99.90
15044;DHT22;7619;48.562;8.910;2022-07-10T02:14:53;16.70;99.90
15044;DHT22;7619;48.562;8.910;2022-07-10T02:17:24;16.70;99.90
15044;DHT22;7619;48.562;8.910;2022-07-10T02:19:52;16.60;1.00
15044;DHT22;7619;48.562;8.910;2022-07-10T02:22:21;16.60;1.00
15044;DHT22;7619;48.562;8.910;2022-07-10T02:24:50;16.50;10.90
15044;DHT22;7619;48.562;8.910;2022-07-10T02:27:19;16.40;57.60
15044;DHT22;7619;48.562;8.910;2022-07-10T02:29:47;16.30;99.90
15044;DHT22;7619;48.562;8.910;2022-07-10T02:32:16;16.20;99.90
15044;DHT22;7619;48.562;8.910;2022-07-10T02:34:45;16.10;1.00
15044;DHT22;7619;48.562;8.910;2022-07-10T02:37:13;16.00;1.00
15044;DHT22;7619;48.562;8.910;2022-07-10T02:39:42;16.00;1.00
15044;DHT22;7619;48.562;8.910;2022-07-10T02:42:12;16.00;1.00
15044;DHT22;7619;48.562;8.910;2022-07-10T02:44:41;16.00;1.00
15044;DHT22;7619;48.562;8.910;2022-07-10T02:47:10;16.00;99.90
15044;DHT22;7619;48.562;8.910;2022-07-10T02:49:39;15.90;1.00
15044;DHT22;7619;48.562;8.910;2022-07-10T02:52:08;15.90;99.90
15044;DHT22;7619;48.562;8.910;2022-07-10T02:54:37;15.90;1.00
15044;DHT22;7619;48.562;8.910;2022-07-10T02:57:06;15.80;1.00
15044;DHT22;7619;48.562;8.910;2022-07-10T02:59:35;15.80;1.00
15044;DHT22;7619;48.562;8.910;2022-07-10T03:02:05;15.80;99.90
15044;DHT22;7619;48.562;8.910;2022-07-10T03:04:35;15.80;1.00
15044;DHT22;7619;48.562;8.910;2022-07-10T03:07:04;15.70;1.00
15044;DHT22;7619;48.562;8.910;2022-07-10T03:09:33;15.70;99.90
15044;DHT22;7619;48.562;8.910;2022-07-10T03:12:02;15.70;99.90
15044;DHT22;7619;48.562;8.910;2022-07-10T03:14:31;15.70;99.90
15044;DHT22;7619;48.562;8.910;2022-07-10T03:17:00;15.70;99.90
15044;DHT22;7619;48.562;8.910;2022-07-10T03:19:29;15.70;99.90
15044;DHT22;7619;48.562;8.910;2022-07-10T03:21:58;15.60;1.00
15044;DHT22;7619;48.562;8.910;2022-07-10T03:24:27;15.60;1.00
15044;DHT22;7619;48.562;8.910;2022-07-10T03:26:56;15.60;99.90
15044;DHT22;7619;48.562;8.910;2022-07-10T03:29:25;15.60;1.00
15044;DHT22;7619;48.562;8.910;2022-07-10T03:31:54;15.50;99.90
15044;DHT22;7619;48.562;8.910;2022-07-10T03:34:23;15.60;99.90
15044;DHT22;7619;48.562;8.910;2022-07-10T03:36:52;15.50;99.90
15044;DHT22;7619;48.562;8.910;2022-07-10T03:39:21;15.50;99.90
15044;DHT22;7619;48.562;8.910;2022-07-10T03:46:45;15.40;99.90
15044;DHT22;7619;48.562;8.910;2022-07-10T03:49:14;15.50;99.90
15044;DHT22;7619;48.562;8.910;2022-07-10T03:51:43;15.50;99.90
15044;DHT22;7619;48.562;8.910;2022-07-10T03:54:12;15.50;99.90
15044;DHT22;7619;48.562;8.910;2022-07-10T03:56:41;15.50;99.90
15044;DHT22;7619;48.562;8.910;2022-07-10T03:59:28;15.50;99.90
15044;DHT22;7619;48.562;8.910;2022-07-10T04:04:24;15.50;99.90
15044;DHT22;7619;48.562;8.910;2022-07-10T04:06:53;15.50;99.90
15044;DHT22;7619;48.562;8.910;2022-07-10T04:09:22;15.60;99.90
15044;DHT22;7619;48.562;8.910;2022-07-10T04:11:51;15.60;99.90
15044;DHT22;7619;48.562;8.910;2022-07-10T04:14:20;15.70;99.90
15044;DHT22;7619;48.562;8.910;2022-07-10T04:16:48;15.70;99.90
15044;DHT22;7619;48.562;8.910;2022-07-10T04:19:17;15.80;99.90
15044;DHT22;7619;48.562;8.910;2022-07-10T04:21:46;15.80;99.90
15044;DHT22;7619;48.562;8.910;2022-07-10T04:24:15;15.80;99.90
15044;DHT22;7619;48.562;8.910;2022-07-10T04:26:44;15.90;99.90
15044;DHT22;7619;48.562;8.910;2022-07-10T04:31:41;16.10;99.90
15044;DHT22;7619;48.562;8.910;2022-07-10T04:34:09;16.20;99.90
15044;DHT22;7619;48.562;8.910;2022-07-10T04:36:38;16.20;99.90
15044;DHT22;7619;48.562;8.910;2022-07-10T04:39:07;16.30;99.90
15044;DHT22;7619;48.562;8.910;2022-07-10T04:41:36;16.30;99.90
15044;DHT22;7619;48.562;8.910;2022-07-10T04:44:05;16.40;99.90
15044;DHT22;7619;48.562;8.910;2022-07-10T04:46:34;16.40;99.90
15044;DHT22;7619;48.562;8.910;2022-07-10T04:51:31;16.50;99.90
15044;DHT22;7619;48.562;8.910;2022-07-10T04:53:59;16.40;99.90
15044;DHT22;7619;48.562;8.910;2022-07-10T04:56:28;16.40;99.90
15044;DHT22;7619;48.562;8.910;2022-07-10T04:58:57;16.20;99.90
15044;DHT22;7619;48.562;8.910;2022-07-10T05:01:26;16.30;99.90
15044;DHT22;7619;48.562;8.910;2022-07-10T05:03:54;16.30;99.90
15044;DHT22;7619;48.562;8.910;2022-07-10T05:06:23;16.20;99.90
15044;DHT22;7619;48.562;8.910;2022-07-10T05:08:52;16.30;1.00
15044;DHT22;7619;48.562;8.910;2022-07-10T05:11:22;16.40;1.00
15044;DHT22;7619;48.562;8.910;2022-07-10T05:16:21;17.20;99.90
15044;DHT22;7619;48.562;8.910;2022-07-10T05:18:49;17.70;1.00
15044;DHT22;7619;48.562;8.910;2022-07-10T05:21:18;18.20;1.00
15044;DHT22;7619;48.562;8.910;2022-07-10T05:23:47;19.00;1.00
15044;DHT22;7619;48.562;8.910;2022-07-10T05:26:16;19.40;1.00
15044;DHT22;7619;48.562;8.910;2022-07-10T05:28:45;19.60;1.00
15044;DHT22;7619;48.562;8.910;2022-07-10T05:31:13;19.80;1.00
15044;DHT22;7619;48.562;8.910;2022-07-10T05:33:42;20.30;1.00
15044;DHT22;7619;48.562;8.910;2022-07-10T05:36:11;19.80;99.90
15044;DHT22;7619;48.562;8.910;2022-07-10T05:38:40;20.10;99.90
15044;DHT22;7619;48.562;8.910;2022-07-10T05:41:09;20.30;1.00
15044;DHT22;7619;48.562;8.910;2022-07-10T05:43:37;19.20;99.90
15044;DHT22;7619;48.562;8.910;2022-07-10T05:46:06;19.30;1.00
15044;DHT22;7619;48.562;8.910;2022-07-10T05:48:35;19.80;1.00
15044;DHT22;7619;48.562;8.910;2022-07-10T05:51:05;19.90;99.90
15044;DHT22;7619;48.562;8.910;2022-07-10T05:53:35;20.10;99.90
15044;DHT22;7619;48.562;8.910;2022-07-10T05:56:04;20.10;1.00
15044;DHT22;7619;48.562;8.910;2022-07-10T06:01:01;21.40;1.00
15044;DHT22;7619;48.562;8.910;2022-07-10T06:03:30;21.80;1.00
15044;DHT22;7619;48.562;8.910;2022-07-10T06:05:59;21.00;99.90
15044;DHT22;7619;48.562;8.910;2022-07-10T06:08:28;20.20;1.00
15044;DHT22;7619;48.562;8.910;2022-07-10T06:10:57;19.40;1.00
15044;DHT22;7619;48.562;8.910;2022-07-10T06:13:25;18.60;1.00
15044;DHT22;7619;48.562;8.910;2022-07-10T06:15:54;18.20;1.00
15044;DHT22;7619;48.562;8.910;2022-07-10T06:20:51;18.80;1.00
15044;DHT22;7619;48.562;8.910;2022-07-10T06:23:20;19.20;1.00
15044;DHT22;7619;48.562;8.910;2022-07-10T06:25:49;20.20;1.00
15044;DHT22;7619;48.562;8.910;2022-07-10T06:28:18;20.30;1.00
15044;DHT22;7619;48.562;8.910;2022-07-10T06:30:47;19.40;1.00
15044;DHT22;7619;48.562;8.910;2022-07-10T06:33:16;18.60;1.00
15044;DHT22;7619;48.562;8.910;2022-07-10T06:35:44;18.40;1.00
15044;DHT22;7619;48.562;8.910;2022-07-10T06:38:13;18.00;99.90
15044;DHT22;7619;48.562;8.910;2022-07-10T06:40:43;17.60;99.90
15044;DHT22;7619;48.562;8.910;2022-07-10T06:43:13;17.60;99.90
15044;DHT22;7619;48.562;8.910;2022-07-10T06:45:42;17.50;99.90
15044;DHT22;7619;48.562;8.910;2022-07-10T06:48:11;17.80;1.00
15044;DHT22;7619;48.562;8.910;2022-07-10T06:50:41;18.60;1.00
15044;DHT22;7619;48.562;8.910;2022-07-10T06:53:10;18.80;1.00
15044;DHT22;7619;48.562;8.910;2022-07-10T06:55:39;18.70;1.00
15044;DHT22;7619;48.562;8.910;2022-07-10T06:58:08;18.70;1.00
15044;DHT22;7619;48.562;8.910;2022-07-10T07:00:36;18.80;1.00
15044;DHT22;7619;48.562;8.910;2022-07-10T07:03:05;18.50;1.00
15044;DHT22;7619;48.562;8.910;2022-07-10T07:05:34;18.40;99.90
15044;DHT22;7619;48.562;8.910;2022-07-10T07:10:31;18.40;99.90
15044;DHT22;7619;48.562;8.910;2022-07-10T07:13:00;18.60;99.90
15044;DHT22;7619;48.562;8.910;2022-07-10T07:15:30;18.90;1.00
15044;DHT22;7619;48.562;8.910;2022-07-10T07:18:00;18.80;1.00
15044;DHT22;7619;48.562;8.910;2022-07-10T07:20:38;18.60;99.90
15044;DHT22;7619;48.562;8.910;2022-07-10T07:23:24;18.40;99.90
15044;DHT22;7619;48.562;8.910;2022-07-10T07:25:53;18.20;99.90
15044;DHT22;7619;48.562;8.910;2022-07-10T07:28:23;18.50;99.90
15044;DHT22;7619;48.562;8.910;2022-07-10T07:30:52;18.40;99.90
15044;DHT22;7619;48.562;8.910;2022-07-10T07:33:20;18.50;99.90
15044;DHT22;7619;48.562;8.910;2022-07-10T07:35:49;18.60;99.90
15044;DHT22;7619;48.562;8.910;2022-07-10T07:38:18;18.90;99.90
15044;DHT22;7619;48.562;8.910;2022-07-10T07:40:47;19.50;99.90
15044;DHT22;7619;48.562;8.910;2022-07-10T07:43:16;19.90;99.90
15044;DHT22;7619;48.562;8.910;2022-07-10T07:45:45;20.40;99.90
15044;DHT22;7619;48.562;8.910;2022-07-10T07:53:19;19.60;99.90
15044;DHT22;7619;48.562;8.910;2022-07-10T07:55:48;19.40;99.90
15044;DHT22;7619;48.562;8.910;2022-07-10T07:58:17;19.20;99.90
15044;DHT22;7619;48.562;8.910;2022-07-10T08:03:14;19.90;99.90
15044;DHT22;7619;48.562;8.910;2022-07-10T08:08:21;21.50;99.90
15044;DHT22;7619;48.562;8.910;2022-07-10T08:10:50;21.20;99.90
15044;DHT22;7619;48.562;8.910;2022-07-10T08:13:19;20.90;99.90
15044;DHT22;7619;48.562;8.910;2022-07-10T08:15:48;21.30;99.90
15044;DHT22;7619;48.562;8.910;2022-07-10T08:18:17;21.70;99.90
15044;DHT22;7619;48.562;8.910;2022-07-10T08:20:45;21.30;99.90
15044;DHT22;7619;48.562;8.910;2022-07-10T08:23:14;20.70;99.90
15044;DHT22;7619;48.562;8.910;2022-07-10T08:25:43;20.20;99.90
15044;DHT22;7619;48.562;8.910;2022-07-10T08:30:49;21.30;99.90
15044;DHT22;7619;48.562;8.910;2022-07-10T08:33:18;22.10;99.90
15044;DHT22;7619;48.562;8.910;2022-07-10T08:35:48;23.50;99.90
15044;DHT22;7619;48.562;8.910;2022-07-10T08:38:16;22.50;99.90
15044;DHT22;7619;48.562;8.910;2022-07-10T08:43:14;22.80;99.90
15044;DHT22;7619;48.562;8.910;2022-07-10T08:45:44;23.00;99.90
15044;DHT22;7619;48.562;8.910;2022-07-10T08:48:15;23.10;99.90
15044;DHT22;7619;48.562;8.910;2022-07-10T08:50:47;23.30;99.90
15044;DHT22;7619;48.562;8.910;2022-07-10T08:55:47;23.60;99.90
15044;DHT22;7619;48.562;8.910;2022-07-10T08:58:17;22.40;99.90
15044;DHT22;7619;48.562;8.910;2022-07-10T09:03:24;21.70;99.90
15044;DHT22;7619;48.562;8.910;2022-07-10T09:08:30;21.10;99.90
15044;DHT22;7619;48.562;8.910;2022-07-10T09:13:52;23.20;99.90
15044;DHT22;7619;48.562;8.910;2022-07-10T09:16:23;22.70;99.90
15044;DHT22;7619;48.562;8.910;2022-07-10T09:18:52;21.50;99.90
15044;DHT22;7619;48.562;8.910;2022-07-10T09:23:50;21.10;99.90
15044;DHT22;7619;48.562;8.910;2022-07-10T09:26:19;20.50;99.90
15044;DHT22;7619;48.562;8.910;2022-07-10T09:31:24;22.20;99.90
15044;DHT22;7619;48.562;8.910;2022-07-10T09:33:53;22.10;99.90
15044;DHT22;7619;48.562;8.910;2022-07-10T09:36:22;22.20;99.90
15044;DHT22;7619;48.562;8.910;2022-07-10T09:38:53;22.00;99.90
15044;DHT22;7619;48.562;8.910;2022-07-10T09:41:24;21.60;99.90
15044;DHT22;7619;48.562;8.910;2022-07-10T09:43:55;21.20;99.90
15044;DHT22;7619;48.562;8.910;2022-07-10T09:46:26;21.20;99.90
15044;DHT22;7619;48.562;8.910;2022-07-10T09:49:14;22.40;99.90
15044;DHT22;7619;48.562;8.910;2022-07-10T09:54:22;24.20;99.90
15044;DHT22;7619;48.562;8.910;2022-07-10T10:07:19;22.10;99.90
15044;DHT22;7619;48.562;8.910;2022-07-10T10:12:27;22.90;99.90
15044;DHT22;7619;48.562;8.910;2022-07-10T10:14:57;22.70;99.90
15044;DHT22;7619;48.562;8.910;2022-07-10T10:17:27;22.80;99.90
15044;DHT22;7619;48.562;8.910;2022-07-10T10:27:52;24.70;99.90
15044;DHT22;7619;48.562;8.910;2022-07-10T10:33:02;23.90;99.90
15044;DHT22;7619;48.562;8.910;2022-07-10T10:35:45;23.90;99.90
15044;DHT22;7619;48.562;8.910;2022-07-10T10:40:43;22.90;99.90
15044;DHT22;7619;48.562;8.910;2022-07-10T10:43:19;23.10;99.90
15044;DHT22;7619;48.562;8.910;2022-07-10T10:48:30;22.50;99.90
15044;DHT22;7619;48.562;8.910;2022-07-10T10:50:59;22.70;99.90
15044;DHT22;7619;48.562;8.910;2022-07-10T10:56:23;23.20;99.90
15044;DHT22;7619;48.562;8.910;2022-07-10T11:01:31;23.40;99.90
15044;DHT22;7619;48.562;8.910;2022-07-10T11:04:16;23.40;99.90
15044;DHT22;7619;48.562;8.910;2022-07-10T11:06:48;23.80;99.90
15044;DHT22;7619;48.562;8.910;2022-07-10T11:09:25;23.70;99.90
15044;DHT22;7619;48.562;8.910;2022-07-10T11:20:06;23.00;99.90
15044;DHT22;7619;48.562;8.910;2022-07-10T11:22:59;23.50;99.90
15044;DHT22;7619;48.562;8.910;2022-07-10T11:28:41;23.10;99.90
15044;DHT22;7619;48.562;8.910;2022-07-10T11:31:09;23.00;99.90
15044;DHT22;7619;48.562;8.910;2022-07-10T11:33:42;23.40;99.90
15044;DHT22;7619;48.562;8.910;2022-07-10T11:36:13;23.50;99.90
15044;DHT22;7619;48.562;8.910;2022-07-10T11:41:15;22.70;99.90
15044;DHT22;7619;48.562;8.910;2022-07-10T11:43:51;22.60;99.90
15044;DHT22;7619;48.562;8.910;2022-07-10T11:46:22;22.40;99.90
15044;DHT22;7619;48.562;8.910;2022-07-10T11:51:31;23.00;99.90
15044;DHT22;7619;48.562;8.910;2022-07-10T11:54:02;23.20;99.90
15044;DHT22;7619;48.562;8.910;2022-07-10T11:59:12;23.40;99.90
15044;DHT22;7619;48.562;8.910;2022-07-10T12:01:43;23.40;99.90
15044;DHT22;7619;48.562;8.910;2022-07-10T12:06:42;23.20;99.90
15044;DHT22;7619;48.562;8.910;2022-07-10T12:09:12;23.10;99.90
15044;DHT22;7619;48.562;8.910;2022-07-10T12:14:23;22.80;99.90
15044;DHT22;7619;48.562;8.910;2022-07-10T12:22:01;22.70;99.90
15044;DHT22;7619;48.562;8.910;2022-07-10T12:24:31;22.80;99.90
15044;DHT22;7619;48.562;8.910;2022-07-10T12:27:00;23.00;99.90
15044;DHT22;7619;48.562;8.910;2022-07-10T12:29:30;23.40;99.90
15044;DHT22;7619;48.562;8.910;2022-07-10T12:31:59;23.70;99.90
15044;DHT22;7619;48.562;8.910;2022-07-10T12:34:35;24.00;99.90
15044;DHT22;7619;48.562;8.910;2022-07-10T12:37:10;24.40;99.90
15044;DHT22;7619;48.562;8.910;2022-07-10T12:47:07;23.50;99.90
15044;DHT22;7619;48.562;8.910;2022-07-10T12:49:53;23.50;99.90
15044;DHT22;7619;48.562;8.910;2022-07-10T12:57:52;22.90;99.90
15044;DHT22;7619;48.562;8.910;2022-07-10T13:00:23;23.60;99.90
15044;DHT22;7619;48.562;8.910;2022-07-10T13:02:59;24.10;99.90
15044;DHT22;7619;48.562;8.910;2022-07-10T13:05:33;24.20;99.90
15044;DHT22;7619;48.562;8.910;2022-07-10T13:08:11;23.80;99.90
15044;DHT22;7619;48.562;8.910;2022-07-10T13:13:20;25.00;99.90
15044;DHT22;7619;48.562;8.910;2022-07-10T13:15:50;25.50;99.90
15044;DHT22;7619;48.562;8.910;2022-07-10T13:21:06;24.50;99.90
15044;DHT22;7619;48.562;8.910;2022-07-10T13:23:35;24.00;99.90
15044;DHT22;7619;48.562;8.910;2022-07-10T13:26:05;23.90;99.90
15044;DHT22;7619;48.562;8.910;2022-07-10T13:31:16;24.20;99.90
15044;DHT22;7619;48.562;8.910;2022-07-10T13:33:45;24.10;99.90
15044;DHT22;7619;48.562;8.910;2022-07-10T13:41:20;23.80;99.90
15044;DHT22;7619;48.562;8.910;2022-07-10T13:43:49;24.40;99.90
15044;DHT22;7619;48.562;8.910;2022-07-10T13:51:28;23.80;99.90
15044;DHT22;7619;48.562;8.910;2022-07-10T13:53:57;23.80;99.90
15044;DHT22;7619;48.562;8.910;2022-07-10T14:01:32;25.00;99.90
15044;DHT22;7619;48.562;8.910;2022-07-10T14:04:01;24.80;99.90
15044;DHT22;7619;48.562;8.910;2022-07-10T14:11:36;24.50;99.90
15044;DHT22;7619;48.562;8.910;2022-07-10T14:14:05;24.70;99.90
15044;DHT22;7619;48.562;8.910;2022-07-10T14:16:34;25.40;99.90
15044;DHT22;7619;48.562;8.910;2022-07-10T14:21:41;25.10;99.90
15044;DHT22;7619;48.562;8.910;2022-07-10T14:24:10;24.70;99.90
15044;DHT22;7619;48.562;8.910;2022-07-10T14:26:42;25.00;99.90
15044;DHT22;7619;48.562;8.910;2022-07-10T14:29:10;25.70;99.90
15044;DHT22;7619;48.562;8.910;2022-07-10T14:31:39;25.50;99.90
15044;DHT22;7619;48.562;8.910;2022-07-10T14:34:08;25.50;99.90
15044;DHT22;7619;48.562;8.910;2022-07-10T14:36:38;25.00;99.90
15044;DHT22;7619;48.562;8.910;2022-07-10T14:39:07;24.60;99.90
15044;DHT22;7619;48.562;8.910;2022-07-10T14:41:35;24.20;99.90
15044;DHT22;7619;48.562;8.910;2022-07-10T14:44:05;24.90;99.90
15044;DHT22;7619;48.562;8.910;2022-07-10T14:49:02;25.40;99.90
15044;DHT22;7619;48.562;8.910;2022-07-10T14:51:31;25.30;99.90
15044;DHT22;7619;48.562;8.910;2022-07-10T14:56:39;25.00;99.90
15044;DHT22;7619;48.562;8.910;2022-07-10T15:01:36;25.10;99.90
15044;DHT22;7619;48.562;8.910;2022-07-10T15:04:05;25.00;99.90
15044;DHT22;7619;48.562;8.910;2022-07-10T15:06:33;24.40;99.90
15044;DHT22;7619;48.562;8.910;2022-07-10T15:09:02;23.60;99.90
15044;DHT22;7619;48.562;8.910;2022-07-10T15:14:09;24.00;99.90
15044;DHT22;7619;48.562;8.910;2022-07-10T15:16:38;24.40;99.90
15044;DHT22;7619;48.562;8.910;2022-07-10T15:19:07;24.60;99.90
15044;DHT22;7619;48.562;8.910;2022-07-10T15:21:38;24.00;99.90
15044;DHT22;7619;48.562;8.910;2022-07-10T15:24:07;24.30;99.90
15044;DHT22;7619;48.562;8.910;2022-07-10T15:29:18;24.00;99.90
15044;DHT22;7619;48.562;8.910;2022-07-10T15:31:49;24.30;99.90
15044;DHT22;7619;48.562;8.910;2022-07-10T15:34:18;24.30;99.90
15044;DHT22;7619;48.562;8.910;2022-07-10T15:39:16;23.90;99.90
15044;DHT22;7619;48.562;8.910;2022-07-10T15:41:46;24.00;99.90
15044;DHT22;7619;48.562;8.910;2022-07-10T15:44:15;24.50;99.90
15044;DHT22;7619;48.562;8.910;2022-07-10T15:46:43;24.30;99.90
15044;DHT22;7619;48.562;8.910;2022-07-10T15:49:13;24.20;99.90
15044;DHT22;7619;48.562;8.910;2022-07-10T15:51:42;24.10;99.90
15044;DHT22;7619;48.562;8.910;2022-07-10T15:54:10;24.00;99.90
15044;DHT22;7619;48.562;8.910;2022-07-10T15:56:39;24.00;99.90
15044;DHT22;7619;48.562;8.910;2022-07-10T16:01:37;23.80;99.90
15044;DHT22;7619;48.562;8.910;2022-07-10T16:06:38;23.30;99.90
15044;DHT22;7619;48.562;8.910;2022-07-10T16:09:07;23.50;99.90
15044;DHT22;7619;48.562;8.910;2022-07-10T16:11:36;23.40;99.90
15044;DHT22;7619;48.562;8.910;2022-07-10T16:16:33;24.10;99.90
15044;DHT22;7619;48.562;8.910;2022-07-10T16:28:56;23.50;99.90
15044;DHT22;7619;48.562;8.910;2022-07-10T16:31:24;23.30;99.90
15044;DHT22;7619;48.562;8.910;2022-07-10T16:36:21;22.90;99.90
15044;DHT22;7619;48.562;8.910;2022-07-10T16:41:28;22.00;99.90
15044;DHT22;7619;48.562;8.910;2022-07-10T16:43:57;22.10;99.90
15044;DHT22;7619;48.562;8.910;2022-07-10T16:46:29;22.10;99.90
15044;DHT22;7619;48.562;8.910;2022-07-10T16:48:58;22.20;99.90
15044;DHT22;7619;48.562;8.910;2022-07-10T16:51:28;22.20;99.90
15044;DHT22;7619;48.562;8.910;2022-07-10T16:56:35;21.70;99.90
15044;DHT22;7619;48.562;8.910;2022-07-10T17:01:46;21.20;99.90
15044;DHT22;7619;48.562;8.910;2022-07-10T17:04:15;21.00;99.90
15044;DHT22;7619;48.562;8.910;2022-07-10T17:11:58;21.20;99.90
15044;DHT22;7619;48.562;8.910;2022-07-10T17:14:27;21.20;99.90
15044;DHT22;7619;48.562;8.910;2022-07-10T17:19:25;21.20;99.90
15044;DHT22;7619;48.562;8.910;2022-07-10T17:21:54;21.10;99.90
15044;DHT22;7619;48.562;8.910;2022-07-10T17:27:01;20.50;99.90
15044;DHT22;7619;48.562;8.910;2022-07-10T17:29:30;20.10;99.90
15044;DHT22;7619;48.562;8.910;2022-07-10T17:31:59;19.80;99.90
15044;DHT22;7619;48.562;8.910;2022-07-10T17:34:28;19.80;99.90
15044;DHT22;7619;48.562;8.910;2022-07-10T17:36:57;20.00;99.90
15044;DHT22;7619;48.562;8.910;2022-07-10T17:39:25;20.30;99.90
15044;DHT22;7619;48.562;8.910;2022-07-10T17:41:54;20.50;99.90
15044;DHT22;7619;48.562;8.910;2022-07-10T17:44:24;20.50;99.90
15044;DHT22;7619;48.562;8.910;2022-07-10T17:54:27;19.90;99.90
15044;DHT22;7619;48.562;8.910;2022-07-10T17:59:32;20.20;99.90
15044;DHT22;7619;48.562;8.910;2022-07-10T18:02:01;20.30;99.90
15044;DHT22;7619;48.562;8.910;2022-07-10T18:04:32;20.30;99.90
15044;DHT22;7619;48.562;8.910;2022-07-10T18:07:01;20.30;99.90
15044;DHT22;7619;48.562;8.910;2022-07-10T18:09:30;20.30;99.90
15044;DHT22;7619;48.562;8.910;2022-07-10T18:11:59;20.20;99.90
15044;DHT22;7619;48.562;8.910;2022-07-10T18:14:28;20.00;99.90
15044;DHT22;7619;48.562;8.910;2022-07-10T18:16:57;20.00;99.90
15044;DHT22;7619;48.562;8.910;2022-07-10T18:19:25;19.80;99.90
15044;DHT22;7619;48.562;8.910;2022-07-10T18:21:54;19.90;99.90
15044;DHT22;7619;48.562;8.910;2022-07-10T18:24:23;19.80;99.90
15044;DHT22;7619;48.562;8.910;2022-07-10T18:26:52;19.50;99.90
15044;DHT22;7619;48.562;8.910;2022-07-10T18:29:21;19.40;98.60
15044;DHT22;7619;48.562;8.910;2022-07-10T18:31:51;19.20;95.20
15044;DHT22;7619;48.562;8.910;2022-07-10T18:34:21;19.00;91.80
15044;DHT22;7619;48.562;8.910;2022-07-10T18:39:26;18.90;85.00
15044;DHT22;7619;48.562;8.910;2022-07-10T18:41:55;18.80;76.70
15044;DHT22;7619;48.562;8.910;2022-07-10T18:44:24;18.70;72.90
15044;DHT22;7619;48.562;8.910;2022-07-10T18:46:53;18.60;72.50
15044;DHT22;7619;48.562;8.910;2022-07-10T18:49:23;18.60;71.50
15044;DHT22;7619;48.562;8.910;2022-07-10T18:51:58;18.60;70.80
15044;DHT22;7619;48.562;8.910;2022-07-10T18:54:27;18.50;72.50
15044;DHT22;7619;48.562;8.910;2022-07-10T18:56:56;18.30;69.30
15044;DHT22;7619;48.562;8.910;2022-07-10T19:02:04;18.30;58.70
15044;DHT22;7619;48.562;8.910;2022-07-10T19:04:33;18.10;58.40
15044;DHT22;7619;48.562;8.910;2022-07-10T19:07:02;18.00;50.10
15044;DHT22;7619;48.562;8.910;2022-07-10T19:09:31;18.00;52.40
15044;DHT22;7619;48.562;8.910;2022-07-10T19:12:00;17.80;51.60
15044;DHT22;7619;48.562;8.910;2022-07-10T19:14:29;17.80;50.20
15044;DHT22;7619;48.562;8.910;2022-07-10T19:16:58;17.70;51.00
15044;DHT22;7619;48.562;8.910;2022-07-10T19:19:27;17.60;52.40
15044;DHT22;7619;48.562;8.910;2022-07-10T19:21:56;17.60;48.70
15044;DHT22;7619;48.562;8.910;2022-07-10T19:24:25;17.60;45.60
15044;DHT22;7619;48.562;8.910;2022-07-10T19:29:22;17.40;44.20
15044;DHT22;7619;48.562;8.910;2022-07-10T19:31:51;17.30;37.70
15044;DHT22;7619;48.562;8.910;2022-07-10T19:34:20;17.30;29.80
15044;DHT22;7619;48.562;8.910;2022-07-10T19:36:49;17.10;26.90
15044;DHT22;7619;48.562;8.910;2022-07-10T19:39:18;17.00;21.70
15044;DHT22;7619;48.562;8.910;2022-07-10T19:41:49;17.00;17.00
15044;DHT22;7619;48.562;8.910;2022-07-10T19:44:18;16.90;17.20
15044;DHT22;7619;48.562;8.910;2022-07-10T19:46:47;16.80;14.10
15044;DHT22;7619;48.562;8.910;2022-07-10T19:49:16;16.80;16.70
15044;DHT22;7619;48.562;8.910;2022-07-10T19:57:35;16.80;18.50
15044;DHT22;7619;48.562;8.910;2022-07-10T20:00:09;16.70;20.40
15044;DHT22;7619;48.562;8.910;2022-07-10T20:02:39;16.70;16.80
15044;DHT22;7619;48.562;8.910;2022-07-10T20:07:36;16.60;1.00
15044;DHT22;7619;48.562;8.910;2022-07-10T20:10:06;16.60;1.00
15044;DHT22;7619;48.562;8.910;2022-07-10T20:12:35;16.60;1.00
15044;DHT22;7619;48.562;8.910;2022-07-10T20:15:06;16.50;1.00
15044;DHT22;7619;48.562;8.910;2022-07-10T20:17:35;16.40;1.00
15044;DHT22;7619;48.562;8.910;2022-07-10T20:20:05;16.40;1.00
15044;DHT22;7619;48.562;8.910;2022-07-10T20:22:35;16.20;1.00
15044;DHT22;7619;48.562;8.910;2022-07-10T20:25:05;16.10;1.00
15044;DHT22;7619;48.562;8.910;2022-07-10T20:27:35;16.00;1.00
15044;DHT22;7619;48.562;8.910;2022-07-10T20:30:05;16.00;1.00
15044;DHT22;7619;48.562;8.910;2022-07-10T20:32:34;15.90;1.00